Terminal Aerodrome Forecast
Issued by NWS Sterling, VA

Home | Current Version | Previous Version | Text Only | Print | Product List | Glossary On
Versions: 1 2 3 4 5 6 7 8 9 10 11 12 13 14 15 16 17 18 19 20 21 22 23 24 25 26
496
FTUS41 KLWX 261547 AAA
TAFIAD
TAF AMD
KIAD 261547Z 2616/2718 29007KT P6SM FEW040 FEW080
     FM261800 26008KT P6SM SCT070
     FM270300 28004KT P6SM SCT250
     FM271700 27008KT P6SM BKN100=

USA.gov is the U.S. government's official web portal to all federal, state and local government web resources and services.